sensor_id;sensor_type;location;lat;lon;timestamp;temperature;humidity
37204;DHT22;23098;48.054;10.636;2024-03-07T00:00:14;2.40;99.90
37204;DHT22;23098;48.054;10.636;2024-03-07T00:02:41;2.40;99.90
37204;DHT22;23098;48.054;10.636;2024-03-07T00:05:07;2.40;99.90
37204;DHT22;23098;48.054;10.636;2024-03-07T00:07:33;2.40;99.90
37204;DHT22;23098;48.054;10.636;2024-03-07T00:10:01;2.40;99.90
37204;DHT22;23098;48.054;10.636;2024-03-07T00:12:28;2.40;99.90
37204;DHT22;23098;48.054;10.636;2024-03-07T00:14:55;2.40;99.90
37204;DHT22;23098;48.054;10.636;2024-03-07T00:17:21;2.40;99.90
37204;DHT22;23098;48.054;10.636;2024-03-07T00:19:46;2.40;99.90
37204;DHT22;23098;48.054;10.636;2024-03-07T00:22:13;2.40;99.90
37204;DHT22;23098;48.054;10.636;2024-03-07T00:24:40;2.40;99.90
37204;DHT22;23098;48.054;10.636;2024-03-07T00:27:05;2.40;99.90
37204;DHT22;23098;48.054;10.636;2024-03-07T00:29:32;2.50;99.90
37204;DHT22;23098;48.054;10.636;2024-03-07T00:32:01;2.50;99.90
37204;DHT22;23098;48.054;10.636;2024-03-07T00:34:26;2.40;99.90
37204;DHT22;23098;48.054;10.636;2024-03-07T00:36:52;2.50;99.90
37204;DHT22;23098;48.054;10.636;2024-03-07T00:39:18;2.40;99.90
37204;DHT22;23098;48.054;10.636;2024-03-07T00:41:45;2.40;99.90
37204;DHT22;23098;48.054;10.636;2024-03-07T00:44:10;2.50;99.90
37204;DHT22;23098;48.054;10.636;2024-03-07T00:46:37;2.50;99.90
37204;DHT22;23098;48.054;10.636;2024-03-07T00:49:03;2.50;99.90
37204;DHT22;23098;48.054;10.636;2024-03-07T00:51:29;2.50;99.90
37204;DHT22;23098;48.054;10.636;2024-03-07T00:53:55;2.50;99.90
37204;DHT22;23098;48.054;10.636;2024-03-07T00:56:21;2.50;99.90
37204;DHT22;23098;48.054;10.636;2024-03-07T00:58:48;2.50;99.90
37204;DHT22;23098;48.054;10.636;2024-03-07T01:01:14;2.60;99.90
37204;DHT22;23098;48.054;10.636;2024-03-07T01:03:41;2.60;99.90
37204;DHT22;23098;48.054;10.636;2024-03-07T01:06:06;2.60;99.90
37204;DHT22;23098;48.054;10.636;2024-03-07T01:08:33;2.50;99.90
37204;DHT22;23098;48.054;10.636;2024-03-07T01:11:00;2.50;99.90
37204;DHT22;23098;48.054;10.636;2024-03-07T01:13:26;2.50;99.90
37204;DHT22;23098;48.054;10.636;2024-03-07T01:15:52;2.60;99.90
37204;DHT22;23098;48.054;10.636;2024-03-07T01:18:18;2.60;99.90
37204;DHT22;23098;48.054;10.636;2024-03-07T01:20:43;2.60;99.90
37204;DHT22;23098;48.054;10.636;2024-03-07T01:23:09;2.60;99.90
37204;DHT22;23098;48.054;10.636;2024-03-07T01:25:35;2.60;99.90
37204;DHT22;23098;48.054;10.636;2024-03-07T01:28:01;2.60;99.90
37204;DHT22;23098;48.054;10.636;2024-03-07T01:30:26;2.60;99.90
37204;DHT22;23098;48.054;10.636;2024-03-07T01:32:54;2.60;99.90
37204;DHT22;23098;48.054;10.636;2024-03-07T01:35:20;2.60;99.90
37204;DHT22;23098;48.054;10.636;2024-03-07T01:37:46;2.60;99.90
37204;DHT22;23098;48.054;10.636;2024-03-07T01:40:12;2.60;99.90
37204;DHT22;23098;48.054;10.636;2024-03-07T01:42:37;2.60;99.90
37204;DHT22;23098;48.054;10.636;2024-03-07T01:45:03;2.70;99.90
37204;DHT22;23098;48.054;10.636;2024-03-07T01:47:29;2.70;99.90
37204;DHT22;23098;48.054;10.636;2024-03-07T01:49:54;2.70;99.90
37204;DHT22;23098;48.054;10.636;2024-03-07T01:52:20;2.70;99.90
37204;DHT22;23098;48.054;10.636;2024-03-07T01:54:47;2.60;99.90
37204;DHT22;23098;48.054;10.636;2024-03-07T01:57:14;2.60;99.90
37204;DHT22;23098;48.054;10.636;2024-03-07T01:59:42;2.60;99.90
37204;DHT22;23098;48.054;10.636;2024-03-07T02:02:08;2.50;99.90
37204;DHT22;23098;48.054;10.636;2024-03-07T02:04:35;2.50;99.90
37204;DHT22;23098;48.054;10.636;2024-03-07T02:07:01;2.50;99.90
37204;DHT22;23098;48.054;10.636;2024-03-07T02:09:26;2.50;99.90
37204;DHT22;23098;48.054;10.636;2024-03-07T02:11:52;2.50;99.90
37204;DHT22;23098;48.054;10.636;2024-03-07T02:14:17;2.50;99.90
37204;DHT22;23098;48.054;10.636;2024-03-07T02:16:43;2.50;99.90
37204;DHT22;23098;48.054;10.636;2024-03-07T02:19:14;2.50;99.90
37204;DHT22;23098;48.054;10.636;2024-03-07T02:21:40;2.60;99.90
37204;DHT22;23098;48.054;10.636;2024-03-07T02:24:05;2.60;99.90
37204;DHT22;23098;48.054;10.636;2024-03-07T02:26:31;2.60;99.90
37204;DHT22;23098;48.054;10.636;2024-03-07T02:28:57;2.60;99.90
37204;DHT22;23098;48.054;10.636;2024-03-07T02:31:22;2.50;99.90
37204;DHT22;23098;48.054;10.636;2024-03-07T02:34:00;2.50;99.90
37204;DHT22;23098;48.054;10.636;2024-03-07T02:36:27;2.50;99.90
37204;DHT22;23098;48.054;10.636;2024-03-07T02:38:52;2.50;99.90
37204;DHT22;23098;48.054;10.636;2024-03-07T02:41:18;2.50;99.90
37204;DHT22;23098;48.054;10.636;2024-03-07T02:43:43;2.50;99.90
37204;DHT22;23098;48.054;10.636;2024-03-07T02:46:09;2.50;99.90
37204;DHT22;23098;48.054;10.636;2024-03-07T02:48:37;2.50;99.90
37204;DHT22;23098;48.054;10.636;2024-03-07T02:51:03;2.50;99.90
37204;DHT22;23098;48.054;10.636;2024-03-07T02:53:31;2.50;99.90
37204;DHT22;23098;48.054;10.636;2024-03-07T02:55:57;2.50;99.90
37204;DHT22;23098;48.054;10.636;2024-03-07T02:58:23;2.50;99.90
37204;DHT22;23098;48.054;10.636;2024-03-07T03:00:59;2.50;99.90
37204;DHT22;23098;48.054;10.636;2024-03-07T03:03:28;2.50;99.90
37204;DHT22;23098;48.054;10.636;2024-03-07T03:05:57;2.50;99.90
37204;DHT22;23098;48.054;10.636;2024-03-07T03:08:23;2.50;99.90
37204;DHT22;23098;48.054;10.636;2024-03-07T03:10:49;2.50;99.90
37204;DHT22;23098;48.054;10.636;2024-03-07T03:13:16;2.50;99.90
37204;DHT22;23098;48.054;10.636;2024-03-07T03:15:42;2.50;99.90
37204;DHT22;23098;48.054;10.636;2024-03-07T03:18:08;2.60;99.90
37204;DHT22;23098;48.054;10.636;2024-03-07T03:20:35;2.50;99.90
37204;DHT22;23098;48.054;10.636;2024-03-07T03:23:04;2.60;99.90
37204;DHT22;23098;48.054;10.636;2024-03-07T03:25:31;2.60;99.90
37204;DHT22;23098;48.054;10.636;2024-03-07T03:28:03;2.60;99.90
37204;DHT22;23098;48.054;10.636;2024-03-07T03:30:29;2.70;99.90
37204;DHT22;23098;48.054;10.636;2024-03-07T03:32:55;2.60;99.90
37204;DHT22;23098;48.054;10.636;2024-03-07T03:35:20;2.60;99.90
37204;DHT22;23098;48.054;10.636;2024-03-07T03:37:46;2.60;99.90
37204;DHT22;23098;48.054;10.636;2024-03-07T03:40:12;2.70;99.90
37204;DHT22;23098;48.054;10.636;2024-03-07T03:42:42;2.70;99.90
37204;DHT22;23098;48.054;10.636;2024-03-07T03:45:09;2.70;99.90
37204;DHT22;23098;48.054;10.636;2024-03-07T03:47:35;2.70;99.90
37204;DHT22;23098;48.054;10.636;2024-03-07T03:50:05;2.70;99.90
37204;DHT22;23098;48.054;10.636;2024-03-07T03:52:31;2.70;99.90
37204;DHT22;23098;48.054;10.636;2024-03-07T03:55:00;2.70;99.90
37204;DHT22;23098;48.054;10.636;2024-03-07T03:57:28;2.70;99.90
37204;DHT22;23098;48.054;10.636;2024-03-07T03:59:53;2.70;99.90
37204;DHT22;23098;48.054;10.636;2024-03-07T04:02:20;2.70;99.90
37204;DHT22;23098;48.054;10.636;2024-03-07T04:04:47;2.80;99.90
37204;DHT22;23098;48.054;10.636;2024-03-07T04:07:14;2.80;99.90
37204;DHT22;23098;48.054;10.636;2024-03-07T04:09:41;2.80;99.90
37204;DHT22;23098;48.054;10.636;2024-03-07T04:12:07;2.70;99.90
37204;DHT22;23098;48.054;10.636;2024-03-07T04:14:42;2.70;99.90
37204;DHT22;23098;48.054;10.636;2024-03-07T04:17:08;2.80;99.90
37204;DHT22;23098;48.054;10.636;2024-03-07T04:19:35;2.80;99.90
37204;DHT22;23098;48.054;10.636;2024-03-07T04:22:01;2.80;99.90
37204;DHT22;23098;48.054;10.636;2024-03-07T04:24:29;2.80;99.90
37204;DHT22;23098;48.054;10.636;2024-03-07T04:26:54;2.80;99.90
37204;DHT22;23098;48.054;10.636;2024-03-07T04:29:20;2.80;99.90
37204;DHT22;23098;48.054;10.636;2024-03-07T04:31:45;2.80;99.90
37204;DHT22;23098;48.054;10.636;2024-03-07T04:34:11;2.80;99.90
37204;DHT22;23098;48.054;10.636;2024-03-07T04:36:36;2.80;99.90
37204;DHT22;23098;48.054;10.636;2024-03-07T04:39:02;2.80;99.90
37204;DHT22;23098;48.054;10.636;2024-03-07T04:41:29;2.80;99.90
37204;DHT22;23098;48.054;10.636;2024-03-07T04:43:55;2.80;99.90
37204;DHT22;23098;48.054;10.636;2024-03-07T04:46:20;2.80;99.90
37204;DHT22;23098;48.054;10.636;2024-03-07T04:48:46;2.80;99.90
37204;DHT22;23098;48.054;10.636;2024-03-07T04:51:11;2.90;99.90
37204;DHT22;23098;48.054;10.636;2024-03-07T04:53:37;2.90;99.90
37204;DHT22;23098;48.054;10.636;2024-03-07T04:56:07;2.90;99.90
37204;DHT22;23098;48.054;10.636;2024-03-07T04:58:35;2.80;99.90
37204;DHT22;23098;48.054;10.636;2024-03-07T05:01:01;2.80;99.90
37204;DHT22;23098;48.054;10.636;2024-03-07T05:03:27;2.80;99.90
37204;DHT22;23098;48.054;10.636;2024-03-07T05:05:53;2.90;99.90
37204;DHT22;23098;48.054;10.636;2024-03-07T05:08:18;2.90;99.90
37204;DHT22;23098;48.054;10.636;2024-03-07T05:10:44;2.90;99.90
37204;DHT22;23098;48.054;10.636;2024-03-07T05:13:09;2.90;99.90
37204;DHT22;23098;48.054;10.636;2024-03-07T05:15:36;2.90;99.90
37204;DHT22;23098;48.054;10.636;2024-03-07T05:18:01;2.90;99.90
37204;DHT22;23098;48.054;10.636;2024-03-07T05:20:27;2.90;99.90
37204;DHT22;23098;48.054;10.636;2024-03-07T05:22:53;2.90;99.90
37204;DHT22;23098;48.054;10.636;2024-03-07T05:25:20;2.90;99.90
37204;DHT22;23098;48.054;10.636;2024-03-07T05:27:47;2.90;99.90
37204;DHT22;23098;48.054;10.636;2024-03-07T05:30:16;3.00;99.90
37204;DHT22;23098;48.054;10.636;2024-03-07T05:32:42;3.00;99.90
37204;DHT22;23098;48.054;10.636;2024-03-07T05:35:08;2.90;99.90
37204;DHT22;23098;48.054;10.636;2024-03-07T05:37:34;3.00;99.90
37204;DHT22;23098;48.054;10.636;2024-03-07T05:39:59;3.00;99.90
37204;DHT22;23098;48.054;10.636;2024-03-07T05:42:25;3.00;99.90
37204;DHT22;23098;48.054;10.636;2024-03-07T05:44:51;3.00;99.90
37204;DHT22;23098;48.054;10.636;2024-03-07T05:47:19;2.90;99.90
37204;DHT22;23098;48.054;10.636;2024-03-07T05:49:44;3.00;99.90
37204;DHT22;23098;48.054;10.636;2024-03-07T05:52:10;3.00;99.90
37204;DHT22;23098;48.054;10.636;2024-03-07T05:54:36;3.00;99.90
37204;DHT22;23098;48.054;10.636;2024-03-07T05:57:02;3.00;99.90
37204;DHT22;23098;48.054;10.636;2024-03-07T05:59:28;3.00;99.90
37204;DHT22;23098;48.054;10.636;2024-03-07T06:01:57;3.00;99.90
37204;DHT22;23098;48.054;10.636;2024-03-07T06:04:22;3.00;99.90
37204;DHT22;23098;48.054;10.636;2024-03-07T06:06:48;3.00;99.90
37204;DHT22;23098;48.054;10.636;2024-03-07T06:09:14;3.00;99.90
37204;DHT22;23098;48.054;10.636;2024-03-07T06:11:40;3.00;99.90
37204;DHT22;23098;48.054;10.636;2024-03-07T06:14:09;3.00;99.90
37204;DHT22;23098;48.054;10.636;2024-03-07T06:16:38;3.00;99.90
37204;DHT22;23098;48.054;10.636;2024-03-07T06:19:04;3.10;99.90
37204;DHT22;23098;48.054;10.636;2024-03-07T06:21:33;3.10;99.90
37204;DHT22;23098;48.054;10.636;2024-03-07T06:23:59;3.10;99.90
37204;DHT22;23098;48.054;10.636;2024-03-07T06:26:29;3.20;99.90
37204;DHT22;23098;48.054;10.636;2024-03-07T06:29:03;3.20;99.90
37204;DHT22;23098;48.054;10.636;2024-03-07T06:31:30;3.20;99.90
37204;DHT22;23098;48.054;10.636;2024-03-07T06:33:56;3.20;99.90
37204;DHT22;23098;48.054;10.636;2024-03-07T06:36:22;3.20;99.90
37204;DHT22;23098;48.054;10.636;2024-03-07T06:38:48;3.20;99.90
37204;DHT22;23098;48.054;10.636;2024-03-07T06:41:13;3.20;99.90
37204;DHT22;23098;48.054;10.636;2024-03-07T06:43:39;3.30;99.90
37204;DHT22;23098;48.054;10.636;2024-03-07T06:46:04;3.30;99.90
37204;DHT22;23098;48.054;10.636;2024-03-07T06:48:31;3.20;99.90
37204;DHT22;23098;48.054;10.636;2024-03-07T06:50:57;3.20;99.90
37204;DHT22;23098;48.054;10.636;2024-03-07T06:53:23;3.30;99.90
37204;DHT22;23098;48.054;10.636;2024-03-07T06:55:52;3.20;99.90
37204;DHT22;23098;48.054;10.636;2024-03-07T06:58:21;3.20;99.90
37204;DHT22;23098;48.054;10.636;2024-03-07T07:00:50;3.00;99.90
37204;DHT22;23098;48.054;10.636;2024-03-07T07:03:23;2.90;99.90
37204;DHT22;23098;48.054;10.636;2024-03-07T07:05:49;3.00;99.90
37204;DHT22;23098;48.054;10.636;2024-03-07T07:08:15;3.00;99.90
37204;DHT22;23098;48.054;10.636;2024-03-07T07:10:41;3.00;99.90
37204;DHT22;23098;48.054;10.636;2024-03-07T07:13:08;3.00;99.90
37204;DHT22;23098;48.054;10.636;2024-03-07T07:15:34;3.00;99.90
37204;DHT22;23098;48.054;10.636;2024-03-07T07:18:00;2.90;99.90
37204;DHT22;23098;48.054;10.636;2024-03-07T07:20:27;2.80;99.90
37204;DHT22;23098;48.054;10.636;2024-03-07T07:22:53;2.90;99.90
37204;DHT22;23098;48.054;10.636;2024-03-07T07:25:19;2.80;99.90
37204;DHT22;23098;48.054;10.636;2024-03-07T07:27:51;2.80;99.90
37204;DHT22;23098;48.054;10.636;2024-03-07T07:30:21;2.80;99.90
37204;DHT22;23098;48.054;10.636;2024-03-07T07:32:52;2.70;99.90
37204;DHT22;23098;48.054;10.636;2024-03-07T07:35:19;2.70;99.90
37204;DHT22;23098;48.054;10.636;2024-03-07T07:37:49;2.80;99.90
37204;DHT22;23098;48.054;10.636;2024-03-07T07:40:16;2.80;99.90
37204;DHT22;23098;48.054;10.636;2024-03-07T07:42:44;2.80;99.90
37204;DHT22;23098;48.054;10.636;2024-03-07T07:45:12;2.80;99.90
37204;DHT22;23098;48.054;10.636;2024-03-07T07:47:39;2.80;99.90
37204;DHT22;23098;48.054;10.636;2024-03-07T07:50:11;2.90;99.90
37204;DHT22;23098;48.054;10.636;2024-03-07T07:52:51;2.90;99.90
37204;DHT22;23098;48.054;10.636;2024-03-07T07:55:26;2.80;99.90
37204;DHT22;23098;48.054;10.636;2024-03-07T07:57:56;2.80;99.90
37204;DHT22;23098;48.054;10.636;2024-03-07T08:00:26;2.80;99.90
37204;DHT22;23098;48.054;10.636;2024-03-07T08:03:01;2.80;99.90
37204;DHT22;23098;48.054;10.636;2024-03-07T08:05:29;2.70;99.90
37204;DHT22;23098;48.054;10.636;2024-03-07T08:07:57;2.60;99.90
37204;DHT22;23098;48.054;10.636;2024-03-07T08:10:27;2.60;99.90
37204;DHT22;23098;48.054;10.636;2024-03-07T08:13:00;2.60;99.90
37204;DHT22;23098;48.054;10.636;2024-03-07T08:15:28;2.50;99.90
37204;DHT22;23098;48.054;10.636;2024-03-07T08:17:54;2.40;99.90
37204;DHT22;23098;48.054;10.636;2024-03-07T08:20:25;2.40;99.90
37204;DHT22;23098;48.054;10.636;2024-03-07T08:22:52;2.40;99.90
37204;DHT22;23098;48.054;10.636;2024-03-07T08:25:19;2.40;99.90
37204;DHT22;23098;48.054;10.636;2024-03-07T08:27:47;2.40;99.90
37204;DHT22;23098;48.054;10.636;2024-03-07T08:30:13;2.50;99.90
37204;DHT22;23098;48.054;10.636;2024-03-07T08:32:46;2.50;99.90
37204;DHT22;23098;48.054;10.636;2024-03-07T08:35:12;2.50;99.90
37204;DHT22;23098;48.054;10.636;2024-03-07T08:37:48;2.50;99.90
37204;DHT22;23098;48.054;10.636;2024-03-07T08:40:22;2.60;99.90
37204;DHT22;23098;48.054;10.636;2024-03-07T08:42:50;2.70;99.90
37204;DHT22;23098;48.054;10.636;2024-03-07T08:45:18;2.70;99.90
37204;DHT22;23098;48.054;10.636;2024-03-07T08:47:48;2.60;99.90
37204;DHT22;23098;48.054;10.636;2024-03-07T08:50:14;2.70;99.90
37204;DHT22;23098;48.054;10.636;2024-03-07T08:52:41;2.70;99.90
37204;DHT22;23098;48.054;10.636;2024-03-07T08:55:08;2.80;99.90
37204;DHT22;23098;48.054;10.636;2024-03-07T08:57:37;2.80;99.90
37204;DHT22;23098;48.054;10.636;2024-03-07T09:00:03;2.70;99.90
37204;DHT22;23098;48.054;10.636;2024-03-07T09:02:34;2.80;99.90
37204;DHT22;23098;48.054;10.636;2024-03-07T09:05:03;3.00;99.90
37204;DHT22;23098;48.054;10.636;2024-03-07T09:07:29;3.10;99.90
37204;DHT22;23098;48.054;10.636;2024-03-07T09:09:55;3.20;99.90
37204;DHT22;23098;48.054;10.636;2024-03-07T09:12:21;3.20;99.90
37204;DHT22;23098;48.054;10.636;2024-03-07T09:14:47;3.20;99.90
37204;DHT22;23098;48.054;10.636;2024-03-07T09:17:12;3.40;99.90
37204;DHT22;23098;48.054;10.636;2024-03-07T09:19:39;3.30;99.90
37204;DHT22;23098;48.054;10.636;2024-03-07T09:22:06;3.30;99.90
37204;DHT22;23098;48.054;10.636;2024-03-07T09:24:33;3.30;99.90
37204;DHT22;23098;48.054;10.636;2024-03-07T09:27:00;3.10;99.90
37204;DHT22;23098;48.054;10.636;2024-03-07T09:29:26;3.30;99.90
37204;DHT22;23098;48.054;10.636;2024-03-07T09:31:53;3.10;99.90
37204;DHT22;23098;48.054;10.636;2024-03-07T09:34:23;3.40;99.90
37204;DHT22;23098;48.054;10.636;2024-03-07T09:36:49;3.20;99.90
37204;DHT22;23098;48.054;10.636;2024-03-07T09:39:15;3.10;99.90
37204;DHT22;23098;48.054;10.636;2024-03-07T09:41:42;3.30;99.90
37204;DHT22;23098;48.054;10.636;2024-03-07T09:44:15;3.50;99.90
37204;DHT22;23098;48.054;10.636;2024-03-07T09:46:54;3.40;99.90
37204;DHT22;23098;48.054;10.636;2024-03-07T09:49:20;3.50;99.90
37204;DHT22;23098;48.054;10.636;2024-03-07T09:51:47;3.40;99.90
37204;DHT22;23098;48.054;10.636;2024-03-07T09:54:18;3.30;99.90
37204;DHT22;23098;48.054;10.636;2024-03-07T09:56:44;3.50;99.90
37204;DHT22;23098;48.054;10.636;2024-03-07T09:59:11;3.60;99.90
37204;DHT22;23098;48.054;10.636;2024-03-07T10:01:39;3.70;99.90
37204;DHT22;23098;48.054;10.636;2024-03-07T10:04:08;3.50;99.90
37204;DHT22;23098;48.054;10.636;2024-03-07T10:06:38;3.60;99.90
37204;DHT22;23098;48.054;10.636;2024-03-07T10:09:06;3.70;99.90
37204;DHT22;23098;48.054;10.636;2024-03-07T10:11:35;3.80;99.90
37204;DHT22;23098;48.054;10.636;2024-03-07T10:14:02;3.70;99.90
37204;DHT22;23098;48.054;10.636;2024-03-07T10:16:32;3.90;99.90
37204;DHT22;23098;48.054;10.636;2024-03-07T10:18:58;3.90;99.90
37204;DHT22;23098;48.054;10.636;2024-03-07T10:21:25;4.00;99.90
37204;DHT22;23098;48.054;10.636;2024-03-07T10:24:04;3.80;99.90
37204;DHT22;23098;48.054;10.636;2024-03-07T10:26:35;3.90;99.90
37204;DHT22;23098;48.054;10.636;2024-03-07T10:29:01;3.80;99.90
37204;DHT22;23098;48.054;10.636;2024-03-07T10:31:32;3.90;99.90
37204;DHT22;23098;48.054;10.636;2024-03-07T10:34:01;4.10;99.90
37204;DHT22;23098;48.054;10.636;2024-03-07T10:36:31;4.20;99.90
37204;DHT22;23098;48.054;10.636;2024-03-07T10:39:01;4.20;99.90
37204;DHT22;23098;48.054;10.636;2024-03-07T10:41:48;3.90;99.90
37204;DHT22;23098;48.054;10.636;2024-03-07T10:44:33;4.00;99.90
37204;DHT22;23098;48.054;10.636;2024-03-07T10:47:04;4.20;99.90
37204;DHT22;23098;48.054;10.636;2024-03-07T10:49:34;4.20;99.90
37204;DHT22;23098;48.054;10.636;2024-03-07T10:52:06;4.10;99.90
37204;DHT22;23098;48.054;10.636;2024-03-07T10:55:08;4.10;99.90
37204;DHT22;23098;48.054;10.636;2024-03-07T10:57:40;4.00;99.90
37204;DHT22;23098;48.054;10.636;2024-03-07T11:00:08;4.00;99.90
37204;DHT22;23098;48.054;10.636;2024-03-07T11:02:56;4.20;99.90
37204;DHT22;23098;48.054;10.636;2024-03-07T11:05:28;4.30;99.90
37204;DHT22;23098;48.054;10.636;2024-03-07T11:07:58;4.40;99.90
37204;DHT22;23098;48.054;10.636;2024-03-07T11:10:25;4.60;99.90
37204;DHT22;23098;48.054;10.636;2024-03-07T11:12:51;4.40;99.90
37204;DHT22;23098;48.054;10.636;2024-03-07T11:15:18;4.20;99.90
37204;DHT22;23098;48.054;10.636;2024-03-07T11:17:49;4.30;99.90
37204;DHT22;23098;48.054;10.636;2024-03-07T11:20:42;4.10;99.90
37204;DHT22;23098;48.054;10.636;2024-03-07T11:23:31;4.20;99.90
37204;DHT22;23098;48.054;10.636;2024-03-07T11:26:14;4.40;99.90
37204;DHT22;23098;48.054;10.636;2024-03-07T11:28:42;4.40;99.90
37204;DHT22;23098;48.054;10.636;2024-03-07T11:31:16;4.50;99.90
37204;DHT22;23098;48.054;10.636;2024-03-07T11:34:12;4.50;99.90
37204;DHT22;23098;48.054;10.636;2024-03-07T11:36:46;4.40;99.90
37204;DHT22;23098;48.054;10.636;2024-03-07T11:39:46;4.20;99.90
37204;DHT22;23098;48.054;10.636;2024-03-07T11:42:19;4.10;99.90
37204;DHT22;23098;48.054;10.636;2024-03-07T11:44:47;4.10;99.90
37204;DHT22;23098;48.054;10.636;2024-03-07T11:47:13;4.10;99.90
37204;DHT22;23098;48.054;10.636;2024-03-07T11:49:39;4.10;99.90
37204;DHT22;23098;48.054;10.636;2024-03-07T11:52:04;4.20;99.90
37204;DHT22;23098;48.054;10.636;2024-03-07T11:54:37;4.00;99.90
37204;DHT22;23098;48.054;10.636;2024-03-07T11:57:06;3.90;99.90
37204;DHT22;23098;48.054;10.636;2024-03-07T11:59:39;4.00;99.90
37204;DHT22;23098;48.054;10.636;2024-03-07T12:02:05;4.00;99.90
37204;DHT22;23098;48.054;10.636;2024-03-07T12:04:42;4.10;99.90
37204;DHT22;23098;48.054;10.636;2024-03-07T12:07:07;4.10;99.90
37204;DHT22;23098;48.054;10.636;2024-03-07T12:09:36;4.10;99.90
37204;DHT22;23098;48.054;10.636;2024-03-07T12:12:06;4.10;99.90
37204;DHT22;23098;48.054;10.636;2024-03-07T12:14:32;4.10;99.90
37204;DHT22;23098;48.054;10.636;2024-03-07T12:17:00;3.90;99.90
37204;DHT22;23098;48.054;10.636;2024-03-07T12:19:26;4.00;99.90
37204;DHT22;23098;48.054;10.636;2024-03-07T12:21:56;3.90;99.90
37204;DHT22;23098;48.054;10.636;2024-03-07T12:24:22;4.00;99.90
37204;DHT22;23098;48.054;10.636;2024-03-07T12:26:47;4.00;99.90
37204;DHT22;23098;48.054;10.636;2024-03-07T12:29:13;4.00;99.90
37204;DHT22;23098;48.054;10.636;2024-03-07T12:31:39;4.10;99.90
37204;DHT22;23098;48.054;10.636;2024-03-07T12:34:05;4.10;99.90
37204;DHT22;23098;48.054;10.636;2024-03-07T12:36:32;4.20;99.90
37204;DHT22;23098;48.054;10.636;2024-03-07T12:39:32;4.20;99.90
37204;DHT22;23098;48.054;10.636;2024-03-07T12:42:02;4.20;99.90
37204;DHT22;23098;48.054;10.636;2024-03-07T12:44:28;4.10;99.90
37204;DHT22;23098;48.054;10.636;2024-03-07T12:47:04;4.20;99.90
37204;DHT22;23098;48.054;10.636;2024-03-07T12:49:30;4.40;99.90
37204;DHT22;23098;48.054;10.636;2024-03-07T12:51:55;4.30;99.90
37204;DHT22;23098;48.054;10.636;2024-03-07T12:54:24;4.40;99.90
37204;DHT22;23098;48.054;10.636;2024-03-07T12:56:50;4.40;99.90
37204;DHT22;23098;48.054;10.636;2024-03-07T12:59:16;4.50;99.90
37204;DHT22;23098;48.054;10.636;2024-03-07T13:01:42;4.70;99.90
37204;DHT22;23098;48.054;10.636;2024-03-07T13:04:11;4.60;99.90
37204;DHT22;23098;48.054;10.636;2024-03-07T13:06:36;4.60;99.90
37204;DHT22;23098;48.054;10.636;2024-03-07T13:09:02;4.50;99.90
37204;DHT22;23098;48.054;10.636;2024-03-07T13:11:38;4.40;99.90
37204;DHT22;23098;48.054;10.636;2024-03-07T13:14:12;4.60;99.90
37204;DHT22;23098;48.054;10.636;2024-03-07T13:16:37;4.80;99.90
37204;DHT22;23098;48.054;10.636;2024-03-07T13:19:03;4.80;99.90
37204;DHT22;23098;48.054;10.636;2024-03-07T13:21:33;5.00;99.90
37204;DHT22;23098;48.054;10.636;2024-03-07T13:24:01;4.80;99.90
37204;DHT22;23098;48.054;10.636;2024-03-07T13:26:28;4.90;99.90
37204;DHT22;23098;48.054;10.636;2024-03-07T13:28:55;4.80;99.90
37204;DHT22;23098;48.054;10.636;2024-03-07T13:31:21;4.80;99.90
37204;DHT22;23098;48.054;10.636;2024-03-07T13:33:49;5.00;99.90
37204;DHT22;23098;48.054;10.636;2024-03-07T13:36:17;5.10;99.90
37204;DHT22;23098;48.054;10.636;2024-03-07T13:38:49;5.40;99.90
37204;DHT22;23098;48.054;10.636;2024-03-07T13:41:20;5.30;99.90
37204;DHT22;23098;48.054;10.636;2024-03-07T13:43:45;5.40;99.90
37204;DHT22;23098;48.054;10.636;2024-03-07T13:46:11;5.30;99.90
37204;DHT22;23098;48.054;10.636;2024-03-07T13:48:41;5.20;99.90
37204;DHT22;23098;48.054;10.636;2024-03-07T13:51:08;5.40;99.90
37204;DHT22;23098;48.054;10.636;2024-03-07T13:53:34;5.30;99.90
37204;DHT22;23098;48.054;10.636;2024-03-07T14:07:27;6.20;99.90
37204;DHT22;23098;48.054;10.636;2024-03-07T14:19:29;6.60;99.90
37204;DHT22;23098;48.054;10.636;2024-03-07T14:22:24;6.40;99.90
37204;DHT22;23098;48.054;10.636;2024-03-07T14:30:52;5.80;99.90
37204;DHT22;23098;48.054;10.636;2024-03-07T14:33:22;6.00;99.90
37204;DHT22;23098;48.054;10.636;2024-03-07T14:36:10;5.70;99.90
37204;DHT22;23098;48.054;10.636;2024-03-07T14:38:53;6.10;99.90
37204;DHT22;23098;48.054;10.636;2024-03-07T14:41:23;6.20;99.90
37204;DHT22;23098;48.054;10.636;2024-03-07T14:43:52;6.20;99.90
37204;DHT22;23098;48.054;10.636;2024-03-07T14:46:17;6.20;99.90
37204;DHT22;23098;48.054;10.636;2024-03-07T14:48:43;6.40;99.90
37204;DHT22;23098;48.054;10.636;2024-03-07T14:51:11;6.70;99.90
37204;DHT22;23098;48.054;10.636;2024-03-07T14:53:39;6.60;99.90
37204;DHT22;23098;48.054;10.636;2024-03-07T14:56:05;6.30;99.90
37204;DHT22;23098;48.054;10.636;2024-03-07T14:58:31;6.10;99.90
37204;DHT22;23098;48.054;10.636;2024-03-07T15:00:56;5.90;99.90
37204;DHT22;23098;48.054;10.636;2024-03-07T15:03:22;6.10;99.90
37204;DHT22;23098;48.054;10.636;2024-03-07T15:05:48;6.10;99.90
37204;DHT22;23098;48.054;10.636;2024-03-07T15:08:14;6.10;99.90
37204;DHT22;23098;48.054;10.636;2024-03-07T15:10:50;6.30;99.90
37204;DHT22;23098;48.054;10.636;2024-03-07T15:13:17;6.10;99.90
37204;DHT22;23098;48.054;10.636;2024-03-07T15:15:43;6.10;99.90
37204;DHT22;23098;48.054;10.636;2024-03-07T15:18:09;6.10;99.90
37204;DHT22;23098;48.054;10.636;2024-03-07T15:20:35;6.10;99.90
37204;DHT22;23098;48.054;10.636;2024-03-07T15:23:02;6.00;99.90
37204;DHT22;23098;48.054;10.636;2024-03-07T15:25:29;5.90;99.90
37204;DHT22;23098;48.054;10.636;2024-03-07T15:27:56;6.10;99.90
37204;DHT22;23098;48.054;10.636;2024-03-07T15:30:23;6.10;99.90
37204;DHT22;23098;48.054;10.636;2024-03-07T15:33:00;6.00;99.90
37204;DHT22;23098;48.054;10.636;2024-03-07T15:35:26;6.00;99.90
37204;DHT22;23098;48.054;10.636;2024-03-07T15:37:52;6.10;99.90
37204;DHT22;23098;48.054;10.636;2024-03-07T15:40:19;6.00;99.90
37204;DHT22;23098;48.054;10.636;2024-03-07T15:42:47;5.90;99.90
37204;DHT22;23098;48.054;10.636;2024-03-07T15:45:18;5.90;99.90
37204;DHT22;23098;48.054;10.636;2024-03-07T15:47:58;5.90;99.90
37204;DHT22;23098;48.054;10.636;2024-03-07T15:50:25;5.80;99.90
37204;DHT22;23098;48.054;10.636;2024-03-07T15:52:55;5.80;99.90
37204;DHT22;23098;48.054;10.636;2024-03-07T15:55:21;5.80;99.90
37204;DHT22;23098;48.054;10.636;2024-03-07T15:57:51;5.80;99.90
37204;DHT22;23098;48.054;10.636;2024-03-07T16:00:22;5.80;99.90
37204;DHT22;23098;48.054;10.636;2024-03-07T16:02:59;5.90;99.90